Mead, WA (99021)

5:00 PM PST on December 02, 2016 (GMT -0800)
Wandermere Estates | | Change Station

Elev 2575 ft 47.78 °N, 117.39 °W | Updated 9 minutes ago

Light Rain
Light Rain
35.8 °F
Feels Like 36 °F
N
2.7
Wind Variable Wind from South

Today
High -- | Low -- °F
--% Chance of Precip.
Yesterday
High -- | Low -- °F
Precip. -- in
Pressure 30.21 in
Visibility 9.0 miles
Clouds Mostly Cloudy 1800 ft
Mostly Cloudy 3200 ft
Overcast 6000 ft
Windchill 36 °F
Dew Point 34 °F
Humidity 94%
Rainfall 0.00 in
Snow Depth Not available.
7:19 AM 3:58 PM
Waxing Crescent, 11% visible
METAR KSFF 030053Z 21006KT 9SM -RA BKN018 BKN032 OVC060 03/01 A3017 RMK AO2 RAB33 SLP229 P0000 T00280006
Pressure 30.21 in
Visibility 9.0 miles
Clouds Mostly Cloudy 1800 ft
Mostly Cloudy 3200 ft
Overcast 6000 ft
Windchill 36 °F
Dew Point 34 °F
Humidity 94%
Rainfall 0.00 in
Snow Depth Not available.
7:19 AM 3:58 PM
Waxing Crescent, 11% visible
METAR KSFF 030053Z 21006KT 9SM -RA BKN018 BKN032 OVC060 03/01 A3017 RMK AO2 RAB33 SLP229 P0000 T00280006

10-Day Weather Forecast

Almanac

Astronomy

Dec. 02, 2016 Rise Set
Actual Time
Civil Twilight
Nautical Twilight
Astronomical Twilight
Moon
Length of Visible Light
Length of Day
Tomorrow will be .
, % of the Moon is Illuminated

Today's Extremes

State Highs State Lows

Community

WunderPhotos

Upload Photos

1,955,381 photos uploaded!

WunderBlog® & News

Nearby

Air Quality

  Air Quality AQ Index Pollutant
Not available.

Snow Depth

Station Depth Elevation

Earthquake Activity

City Distance Mag. Time & Date
Minimum magnitude displayed is 2.5.

Coastal Water Temperatures

Place Temperature

Stations

Nearby Weather Stations

Station Location Temp. Windchill Dew Point Humidity Wind Precip. Elev Updated Type
                   

Watches & Warnings

There are currently no watches in effect.